sensor_id;sensor_type;location;lat;lon;timestamp;P1;durP1;ratioP1;P2;durP2;ratioP2
8538;SDS011;4307;53.868;11.680;2023-09-19T00:02:05;2.93;;;1.70;;
8538;SDS011;4307;53.868;11.680;2023-09-19T00:04:33;1.07;;;0.97;;
8538;SDS011;4307;53.868;11.680;2023-09-19T00:07:04;2.53;;;1.20;;
8538;SDS011;4307;53.868;11.680;2023-09-19T00:09:34;2.63;;;1.73;;
8538;SDS011;4307;53.868;11.680;2023-09-19T00:12:03;1.60;;;1.50;;
8538;SDS011;4307;53.868;11.680;2023-09-19T00:14:31;2.27;;;1.40;;
8538;SDS011;4307;53.868;11.680;2023-09-19T00:16:59;2.73;;;1.60;;
8538;SDS011;4307;53.868;11.680;2023-09-19T00:19:27;3.33;;;1.53;;
8538;SDS011;4307;53.868;11.680;2023-09-19T00:21:57;1.40;;;1.30;;
8538;SDS011;4307;53.868;11.680;2023-09-19T00:24:24;2.03;;;1.07;;
8538;SDS011;4307;53.868;11.680;2023-09-19T00:26:53;0.90;;;0.90;;
8538;SDS011;4307;53.868;11.680;2023-09-19T00:29:20;2.17;;;1.20;;
8538;SDS011;4307;53.868;11.680;2023-09-19T00:31:48;1.73;;;1.50;;
8538;SDS011;4307;53.868;11.680;2023-09-19T00:34:15;1.97;;;1.40;;
8538;SDS011;4307;53.868;11.680;2023-09-19T00:36:43;1.20;;;1.10;;
8538;SDS011;4307;53.868;11.680;2023-09-19T00:39:10;2.40;;;1.70;;
8538;SDS011;4307;53.868;11.680;2023-09-19T00:41:36;3.80;;;1.60;;
8538;SDS011;4307;53.868;11.680;2023-09-19T00:44:03;2.40;;;1.20;;
8538;SDS011;4307;53.868;11.680;2023-09-19T00:46:31;3.40;;;1.10;;
8538;SDS011;4307;53.868;11.680;2023-09-19T00:48:58;1.83;;;1.40;;
8538;SDS011;4307;53.868;11.680;2023-09-19T00:51:26;1.10;;;1.10;;
8538;SDS011;4307;53.868;11.680;2023-09-19T00:53:54;1.60;;;1.47;;
8538;SDS011;4307;53.868;11.680;2023-09-19T00:56:21;2.07;;;1.63;;
8538;SDS011;4307;53.868;11.680;2023-09-19T00:58:48;4.13;;;1.37;;
8538;SDS011;4307;53.868;11.680;2023-09-19T01:01:15;2.07;;;1.57;;
8538;SDS011;4307;53.868;11.680;2023-09-19T01:03:42;1.97;;;1.20;;
8538;SDS011;4307;53.868;11.680;2023-09-19T01:06:10;2.03;;;1.43;;
8538;SDS011;4307;53.868;11.680;2023-09-19T01:08:37;8.03;;;1.83;;
8538;SDS011;4307;53.868;11.680;2023-09-19T01:11:08;2.77;;;1.23;;
8538;SDS011;4307;53.868;11.680;2023-09-19T01:13:44;4.00;;;1.60;;
8538;SDS011;4307;53.868;11.680;2023-09-19T01:16:19;4.80;;;1.90;;
8538;SDS011;4307;53.868;11.680;2023-09-19T01:18:55;4.30;;;1.90;;
8538;SDS011;4307;53.868;11.680;2023-09-19T01:21:34;3.83;;;1.87;;
8538;SDS011;4307;53.868;11.680;2023-09-19T01:27:25;2.77;;;1.53;;
8538;SDS011;4307;53.868;11.680;2023-09-19T01:30:31;1.60;;;1.50;;
8538;SDS011;4307;53.868;11.680;2023-09-19T01:33:02;3.70;;;1.70;;
8538;SDS011;4307;53.868;11.680;2023-09-19T01:35:31;3.27;;;1.90;;
8538;SDS011;4307;53.868;11.680;2023-09-19T01:37:59;1.87;;;1.63;;
8538;SDS011;4307;53.868;11.680;2023-09-19T01:40:25;1.90;;;1.57;;
8538;SDS011;4307;53.868;11.680;2023-09-19T01:42:54;2.33;;;2.00;;
8538;SDS011;4307;53.868;11.680;2023-09-19T01:45:26;3.00;;;2.10;;
8538;SDS011;4307;53.868;11.680;2023-09-19T01:48:07;3.17;;;1.90;;
8538;SDS011;4307;53.868;11.680;2023-09-19T01:50:47;3.10;;;2.00;;
8538;SDS011;4307;53.868;11.680;2023-09-19T01:53:21;4.27;;;2.20;;
8538;SDS011;4307;53.868;11.680;2023-09-19T01:55:53;3.13;;;2.07;;
8538;SDS011;4307;53.868;11.680;2023-09-19T01:58:21;3.03;;;1.97;;
8538;SDS011;4307;53.868;11.680;2023-09-19T02:00:57;3.10;;;2.13;;
8538;SDS011;4307;53.868;11.680;2023-09-19T02:03:26;4.07;;;2.47;;
8538;SDS011;4307;53.868;11.680;2023-09-19T02:05:54;3.97;;;2.10;;
8538;SDS011;4307;53.868;11.680;2023-09-19T02:08:21;2.37;;;2.17;;
8538;SDS011;4307;53.868;11.680;2023-09-19T02:10:49;2.77;;;2.03;;
8538;SDS011;4307;53.868;11.680;2023-09-19T02:13:18;2.90;;;2.00;;
8538;SDS011;4307;53.868;11.680;2023-09-19T02:15:46;5.40;;;2.30;;
8538;SDS011;4307;53.868;11.680;2023-09-19T02:18:14;4.10;;;2.30;;
8538;SDS011;4307;53.868;11.680;2023-09-19T02:20:40;4.53;;;2.20;;
8538;SDS011;4307;53.868;11.680;2023-09-19T02:23:07;2.60;;;2.40;;
8538;SDS011;4307;53.868;11.680;2023-09-19T02:25:35;3.07;;;2.60;;
8538;SDS011;4307;53.868;11.680;2023-09-19T02:28:03;4.10;;;2.50;;
8538;SDS011;4307;53.868;11.680;2023-09-19T02:30:30;5.27;;;2.60;;
8538;SDS011;4307;53.868;11.680;2023-09-19T02:32:57;4.43;;;2.70;;
8538;SDS011;4307;53.868;11.680;2023-09-19T02:35:27;5.30;;;2.37;;
8538;SDS011;4307;53.868;11.680;2023-09-19T02:37:57;5.17;;;2.70;;
8538;SDS011;4307;53.868;11.680;2023-09-19T02:40:24;6.03;;;2.63;;
8538;SDS011;4307;53.868;11.680;2023-09-19T02:42:53;3.33;;;2.40;;
8538;SDS011;4307;53.868;11.680;2023-09-19T02:45:24;3.63;;;2.30;;
8538;SDS011;4307;53.868;11.680;2023-09-19T02:47:50;5.83;;;2.57;;
8538;SDS011;4307;53.868;11.680;2023-09-19T02:50:17;3.83;;;2.57;;
8538;SDS011;4307;53.868;11.680;2023-09-19T02:52:46;3.20;;;2.87;;
8538;SDS011;4307;53.868;11.680;2023-09-19T02:55:13;2.63;;;2.27;;
8538;SDS011;4307;53.868;11.680;2023-09-19T02:57:44;5.13;;;2.50;;
8538;SDS011;4307;53.868;11.680;2023-09-19T03:00:12;5.17;;;2.73;;
8538;SDS011;4307;53.868;11.680;2023-09-19T03:02:39;5.10;;;2.50;;
8538;SDS011;4307;53.868;11.680;2023-09-19T03:05:06;2.40;;;2.17;;
8538;SDS011;4307;53.868;11.680;2023-09-19T03:07:36;4.33;;;3.00;;
8538;SDS011;4307;53.868;11.680;2023-09-19T03:10:05;5.00;;;3.10;;
8538;SDS011;4307;53.868;11.680;2023-09-19T03:12:32;2.93;;;2.60;;
8538;SDS011;4307;53.868;11.680;2023-09-19T03:14:59;4.13;;;2.40;;
8538;SDS011;4307;53.868;11.680;2023-09-19T03:17:26;6.67;;;3.30;;
8538;SDS011;4307;53.868;11.680;2023-09-19T03:19:53;6.13;;;3.17;;
8538;SDS011;4307;53.868;11.680;2023-09-19T03:22:20;3.80;;;3.10;;
8538;SDS011;4307;53.868;11.680;2023-09-19T03:24:46;4.67;;;3.53;;
8538;SDS011;4307;53.868;11.680;2023-09-19T03:27:14;3.27;;;2.90;;
8538;SDS011;4307;53.868;11.680;2023-09-19T03:29:41;4.13;;;3.20;;
8538;SDS011;4307;53.868;11.680;2023-09-19T03:32:08;5.40;;;3.07;;
8538;SDS011;4307;53.868;11.680;2023-09-19T03:34:35;6.77;;;3.20;;
8538;SDS011;4307;53.868;11.680;2023-09-19T03:37:02;7.17;;;3.20;;
8538;SDS011;4307;53.868;11.680;2023-09-19T03:39:29;8.27;;;3.37;;
8538;SDS011;4307;53.868;11.680;2023-09-19T03:41:56;5.00;;;3.23;;
8538;SDS011;4307;53.868;11.680;2023-09-19T03:44:24;6.40;;;3.27;;
8538;SDS011;4307;53.868;11.680;2023-09-19T03:46:50;9.13;;;3.40;;
8538;SDS011;4307;53.868;11.680;2023-09-19T03:49:17;4.87;;;3.30;;
8538;SDS011;4307;53.868;11.680;2023-09-19T03:51:44;3.80;;;3.37;;
8538;SDS011;4307;53.868;11.680;2023-09-19T03:54:11;5.77;;;3.60;;
8538;SDS011;4307;53.868;11.680;2023-09-19T03:56:38;4.80;;;3.20;;
8538;SDS011;4307;53.868;11.680;2023-09-19T03:59:05;5.83;;;3.60;;
8538;SDS011;4307;53.868;11.680;2023-09-19T04:01:34;3.93;;;3.57;;
8538;SDS011;4307;53.868;11.680;2023-09-19T04:04:02;3.83;;;3.40;;
8538;SDS011;4307;53.868;11.680;2023-09-19T04:06:33;4.97;;;3.53;;
8538;SDS011;4307;53.868;11.680;2023-09-19T04:09:00;5.53;;;3.40;;
8538;SDS011;4307;53.868;11.680;2023-09-19T04:11:28;4.77;;;3.90;;
8538;SDS011;4307;53.868;11.680;2023-09-19T04:13:55;6.03;;;3.57;;
8538;SDS011;4307;53.868;11.680;2023-09-19T04:16:22;6.33;;;3.70;;
8538;SDS011;4307;53.868;11.680;2023-09-19T04:18:50;6.33;;;3.50;;
8538;SDS011;4307;53.868;11.680;2023-09-19T04:21:16;6.43;;;3.37;;
8538;SDS011;4307;53.868;11.680;2023-09-19T04:23:44;4.23;;;3.60;;
8538;SDS011;4307;53.868;11.680;2023-09-19T04:26:11;6.37;;;3.83;;
8538;SDS011;4307;53.868;11.680;2023-09-19T04:28:38;6.27;;;3.47;;
8538;SDS011;4307;53.868;11.680;2023-09-19T04:31:05;4.07;;;3.60;;
8538;SDS011;4307;53.868;11.680;2023-09-19T04:33:33;4.47;;;3.37;;
8538;SDS011;4307;53.868;11.680;2023-09-19T04:36:02;4.13;;;3.43;;
8538;SDS011;4307;53.868;11.680;2023-09-19T04:38:30;5.23;;;3.20;;
8538;SDS011;4307;53.868;11.680;2023-09-19T04:40:57;4.90;;;3.77;;
8538;SDS011;4307;53.868;11.680;2023-09-19T04:43:24;3.40;;;3.07;;
8538;SDS011;4307;53.868;11.680;2023-09-19T04:45:51;6.27;;;3.57;;
8538;SDS011;4307;53.868;11.680;2023-09-19T04:48:20;5.90;;;3.30;;
8538;SDS011;4307;53.868;11.680;2023-09-19T04:50:49;5.40;;;3.20;;
8538;SDS011;4307;53.868;11.680;2023-09-19T04:53:17;8.17;;;3.23;;
8538;SDS011;4307;53.868;11.680;2023-09-19T04:55:45;5.30;;;3.27;;
8538;SDS011;4307;53.868;11.680;2023-09-19T04:58:15;6.20;;;3.23;;
8538;SDS011;4307;53.868;11.680;2023-09-19T05:00:42;5.87;;;3.00;;
8538;SDS011;4307;53.868;11.680;2023-09-19T05:03:09;6.90;;;3.37;;
8538;SDS011;4307;53.868;11.680;2023-09-19T05:05:36;5.53;;;3.10;;
8538;SDS011;4307;53.868;11.680;2023-09-19T05:08:03;5.77;;;3.07;;
8538;SDS011;4307;53.868;11.680;2023-09-19T05:10:32;4.90;;;3.17;;
8538;SDS011;4307;53.868;11.680;2023-09-19T05:13:00;9.40;;;3.33;;
8538;SDS011;4307;53.868;11.680;2023-09-19T05:15:27;5.63;;;3.23;;
8538;SDS011;4307;53.868;11.680;2023-09-19T05:17:54;6.23;;;3.30;;
8538;SDS011;4307;53.868;11.680;2023-09-19T05:20:20;3.93;;;2.73;;
8538;SDS011;4307;53.868;11.680;2023-09-19T05:22:57;5.80;;;2.97;;
8538;SDS011;4307;53.868;11.680;2023-09-19T05:25:27;7.17;;;3.00;;
8538;SDS011;4307;53.868;11.680;2023-09-19T05:27:57;3.83;;;2.40;;
8538;SDS011;4307;53.868;11.680;2023-09-19T05:30:25;4.07;;;2.57;;
8538;SDS011;4307;53.868;11.680;2023-09-19T05:32:54;4.20;;;2.60;;
8538;SDS011;4307;53.868;11.680;2023-09-19T05:35:21;5.30;;;2.77;;
8538;SDS011;4307;53.868;11.680;2023-09-19T05:37:48;6.13;;;2.40;;
8538;SDS011;4307;53.868;11.680;2023-09-19T05:40:16;9.00;;;2.80;;
8538;SDS011;4307;53.868;11.680;2023-09-19T05:42:43;3.03;;;2.40;;
8538;SDS011;4307;53.868;11.680;2023-09-19T05:45:11;4.37;;;2.37;;
8538;SDS011;4307;53.868;11.680;2023-09-19T05:47:38;3.93;;;2.57;;
8538;SDS011;4307;53.868;11.680;2023-09-19T05:50:08;3.43;;;2.27;;
8538;SDS011;4307;53.868;11.680;2023-09-19T05:52:38;6.00;;;2.27;;
8538;SDS011;4307;53.868;11.680;2023-09-19T05:55:06;5.53;;;2.23;;
8538;SDS011;4307;53.868;11.680;2023-09-19T05:57:33;4.17;;;2.20;;
8538;SDS011;4307;53.868;11.680;2023-09-19T06:00:00;3.57;;;2.30;;
8538;SDS011;4307;53.868;11.680;2023-09-19T06:02:28;3.73;;;2.27;;
8538;SDS011;4307;53.868;11.680;2023-09-19T06:04:55;5.90;;;1.90;;
8538;SDS011;4307;53.868;11.680;2023-09-19T06:07:21;3.27;;;2.00;;
8538;SDS011;4307;53.868;11.680;2023-09-19T06:09:51;4.60;;;1.93;;
8538;SDS011;4307;53.868;11.680;2023-09-19T06:12:18;6.87;;;2.37;;
8538;SDS011;4307;53.868;11.680;2023-09-19T06:14:45;4.30;;;1.60;;
8538;SDS011;4307;53.868;11.680;2023-09-19T06:17:13;7.07;;;2.10;;
8538;SDS011;4307;53.868;11.680;2023-09-19T06:19:41;5.67;;;1.97;;
8538;SDS011;4307;53.868;11.680;2023-09-19T06:22:14;5.53;;;2.10;;
8538;SDS011;4307;53.868;11.680;2023-09-19T06:24:43;6.63;;;2.13;;
8538;SDS011;4307;53.868;11.680;2023-09-19T06:27:10;3.93;;;1.93;;
8538;SDS011;4307;53.868;11.680;2023-09-19T06:29:37;4.13;;;2.20;;
8538;SDS011;4307;53.868;11.680;2023-09-19T06:32:06;4.73;;;2.03;;
8538;SDS011;4307;53.868;11.680;2023-09-19T06:34:35;5.30;;;2.50;;
8538;SDS011;4307;53.868;11.680;2023-09-19T06:37:03;4.40;;;1.93;;
8538;SDS011;4307;53.868;11.680;2023-09-19T06:39:31;3.90;;;2.23;;
8538;SDS011;4307;53.868;11.680;2023-09-19T06:41:57;3.13;;;1.87;;
8538;SDS011;4307;53.868;11.680;2023-09-19T06:44:26;5.53;;;2.20;;
8538;SDS011;4307;53.868;11.680;2023-09-19T06:46:54;5.07;;;1.77;;
8538;SDS011;4307;53.868;11.680;2023-09-19T06:49:21;4.20;;;1.93;;
8538;SDS011;4307;53.868;11.680;2023-09-19T06:51:48;3.90;;;1.77;;
8538;SDS011;4307;53.868;11.680;2023-09-19T06:54:16;5.73;;;2.33;;
8538;SDS011;4307;53.868;11.680;2023-09-19T06:56:43;5.40;;;1.90;;
8538;SDS011;4307;53.868;11.680;2023-09-19T06:59:09;4.30;;;1.80;;
8538;SDS011;4307;53.868;11.680;2023-09-19T07:01:39;7.63;;;2.20;;
8538;SDS011;4307;53.868;11.680;2023-09-19T07:04:06;4.03;;;1.87;;
8538;SDS011;4307;53.868;11.680;2023-09-19T07:06:32;4.03;;;1.53;;
8538;SDS011;4307;53.868;11.680;2023-09-19T07:08:59;4.57;;;1.70;;
8538;SDS011;4307;53.868;11.680;2023-09-19T07:11:28;5.03;;;1.50;;
8538;SDS011;4307;53.868;11.680;2023-09-19T07:13:55;5.00;;;1.57;;
8538;SDS011;4307;53.868;11.680;2023-09-19T07:16:22;3.83;;;1.60;;
8538;SDS011;4307;53.868;11.680;2023-09-19T07:18:54;4.77;;;1.40;;
8538;SDS011;4307;53.868;11.680;2023-09-19T07:21:21;5.43;;;1.70;;
8538;SDS011;4307;53.868;11.680;2023-09-19T07:23:48;3.10;;;1.63;;
8538;SDS011;4307;53.868;11.680;2023-09-19T07:26:14;6.60;;;1.97;;
8538;SDS011;4307;53.868;11.680;2023-09-19T07:28:43;5.07;;;1.97;;
8538;SDS011;4307;53.868;11.680;2023-09-19T07:31:09;3.93;;;1.30;;
8538;SDS011;4307;53.868;11.680;2023-09-19T07:33:38;7.37;;;1.93;;
8538;SDS011;4307;53.868;11.680;2023-09-19T07:36:05;4.93;;;1.77;;
8538;SDS011;4307;53.868;11.680;2023-09-19T07:38:35;5.10;;;1.70;;
8538;SDS011;4307;53.868;11.680;2023-09-19T07:41:02;4.10;;;1.63;;
8538;SDS011;4307;53.868;11.680;2023-09-19T07:43:30;8.17;;;2.07;;
8538;SDS011;4307;53.868;11.680;2023-09-19T07:46:02;3.87;;;2.00;;
8538;SDS011;4307;53.868;11.680;2023-09-19T07:48:31;8.13;;;1.90;;
8538;SDS011;4307;53.868;11.680;2023-09-19T07:51:01;4.33;;;1.97;;
8538;SDS011;4307;53.868;11.680;2023-09-19T07:53:28;4.17;;;1.70;;
8538;SDS011;4307;53.868;11.680;2023-09-19T07:56:02;6.97;;;2.43;;
8538;SDS011;4307;53.868;11.680;2023-09-19T07:58:30;5.17;;;1.77;;
8538;SDS011;4307;53.868;11.680;2023-09-19T08:01:03;5.53;;;1.87;;
8538;SDS011;4307;53.868;11.680;2023-09-19T08:03:30;5.30;;;2.30;;
8538;SDS011;4307;53.868;11.680;2023-09-19T08:05:57;6.00;;;1.87;;
8538;SDS011;4307;53.868;11.680;2023-09-19T08:08:23;3.07;;;1.50;;
8538;SDS011;4307;53.868;11.680;2023-09-19T08:10:52;5.43;;;2.10;;
8538;SDS011;4307;53.868;11.680;2023-09-19T08:13:20;7.57;;;1.93;;
8538;SDS011;4307;53.868;11.680;2023-09-19T08:15:47;6.23;;;1.93;;
8538;SDS011;4307;53.868;11.680;2023-09-19T08:18:15;4.53;;;1.93;;
8538;SDS011;4307;53.868;11.680;2023-09-19T08:20:42;7.07;;;2.03;;
8538;SDS011;4307;53.868;11.680;2023-09-19T08:23:11;6.60;;;2.10;;
8538;SDS011;4307;53.868;11.680;2023-09-19T08:25:37;8.40;;;2.10;;
8538;SDS011;4307;53.868;11.680;2023-09-19T08:28:05;7.03;;;2.47;;
8538;SDS011;4307;53.868;11.680;2023-09-19T08:30:34;4.60;;;2.20;;
8538;SDS011;4307;53.868;11.680;2023-09-19T08:33:02;10.47;;;2.13;;
8538;SDS011;4307;53.868;11.680;2023-09-19T08:35:31;5.70;;;2.20;;
8538;SDS011;4307;53.868;11.680;2023-09-19T08:37:58;5.47;;;1.80;;
8538;SDS011;4307;53.868;11.680;2023-09-19T08:40:29;7.70;;;2.10;;
8538;SDS011;4307;53.868;11.680;2023-09-19T08:42:58;7.87;;;2.40;;
8538;SDS011;4307;53.868;11.680;2023-09-19T08:45:26;4.20;;;1.60;;
8538;SDS011;4307;53.868;11.680;2023-09-19T08:47:54;4.43;;;2.10;;
8538;SDS011;4307;53.868;11.680;2023-09-19T08:50:28;7.37;;;2.43;;
8538;SDS011;4307;53.868;11.680;2023-09-19T08:52:59;6.03;;;1.97;;
8538;SDS011;4307;53.868;11.680;2023-09-19T08:55:27;4.17;;;2.30;;
8538;SDS011;4307;53.868;11.680;2023-09-19T08:57:57;7.17;;;2.43;;
8538;SDS011;4307;53.868;11.680;2023-09-19T09:00:27;6.90;;;3.10;;
8538;SDS011;4307;53.868;11.680;2023-09-19T09:02:55;5.80;;;2.57;;
8538;SDS011;4307;53.868;11.680;2023-09-19T09:05:22;5.53;;;2.23;;
8538;SDS011;4307;53.868;11.680;2023-09-19T09:07:51;9.50;;;2.53;;
8538;SDS011;4307;53.868;11.680;2023-09-19T09:10:21;6.93;;;2.10;;
8538;SDS011;4307;53.868;11.680;2023-09-19T09:12:48;6.33;;;2.50;;
8538;SDS011;4307;53.868;11.680;2023-09-19T09:15:17;11.23;;;2.53;;
8538;SDS011;4307;53.868;11.680;2023-09-19T09:17:47;11.27;;;2.30;;
8538;SDS011;4307;53.868;11.680;2023-09-19T09:20:15;4.03;;;2.00;;
8538;SDS011;4307;53.868;11.680;2023-09-19T09:22:50;7.27;;;2.47;;
8538;SDS011;4307;53.868;11.680;2023-09-19T09:25:18;7.67;;;2.17;;
8538;SDS011;4307;53.868;11.680;2023-09-19T09:27:57;5.47;;;1.83;;
8538;SDS011;4307;53.868;11.680;2023-09-19T09:30:32;5.13;;;2.60;;
8538;SDS011;4307;53.868;11.680;2023-09-19T09:33:07;6.70;;;2.50;;
8538;SDS011;4307;53.868;11.680;2023-09-19T09:35:36;5.03;;;2.50;;
8538;SDS011;4307;53.868;11.680;2023-09-19T09:38:04;4.80;;;2.30;;
8538;SDS011;4307;53.868;11.680;2023-09-19T09:40:40;6.00;;;2.47;;
8538;SDS011;4307;53.868;11.680;2023-09-19T09:43:24;4.87;;;2.23;;
8538;SDS011;4307;53.868;11.680;2023-09-19T09:46:05;8.13;;;2.67;;
8538;SDS011;4307;53.868;11.680;2023-09-19T09:48:57;5.77;;;2.30;;
8538;SDS011;4307;53.868;11.680;2023-09-19T09:51:41;6.03;;;2.23;;
8538;SDS011;4307;53.868;11.680;2023-09-19T09:54:09;14.90;;;3.07;;
8538;SDS011;4307;53.868;11.680;2023-09-19T09:56:42;8.73;;;2.70;;
8538;SDS011;4307;53.868;11.680;2023-09-19T09:59:18;9.43;;;2.30;;
8538;SDS011;4307;53.868;11.680;2023-09-19T10:01:49;7.93;;;2.60;;
8538;SDS011;4307;53.868;11.680;2023-09-19T10:04:26;9.90;;;2.97;;
8538;SDS011;4307;53.868;11.680;2023-09-19T10:06:56;7.67;;;2.97;;
8538;SDS011;4307;53.868;11.680;2023-09-19T10:09:23;6.67;;;2.57;;
8538;SDS011;4307;53.868;11.680;2023-09-19T10:12:05;7.67;;;2.40;;
8538;SDS011;4307;53.868;11.680;2023-09-19T10:14:33;4.77;;;2.07;;
8538;SDS011;4307;53.868;11.680;2023-09-19T10:17:04;6.70;;;2.43;;
8538;SDS011;4307;53.868;11.680;2023-09-19T10:19:36;4.07;;;1.93;;
8538;SDS011;4307;53.868;11.680;2023-09-19T10:22:04;3.80;;;2.23;;
8538;SDS011;4307;53.868;11.680;2023-09-19T10:24:34;5.00;;;2.17;;
8538;SDS011;4307;53.868;11.680;2023-09-19T10:27:05;5.27;;;2.30;;
8538;SDS011;4307;53.868;11.680;2023-09-19T10:29:34;6.97;;;2.33;;
8538;SDS011;4307;53.868;11.680;2023-09-19T10:32:05;5.30;;;1.97;;
8538;SDS011;4307;53.868;11.680;2023-09-19T10:34:34;4.37;;;1.90;;
8538;SDS011;4307;53.868;11.680;2023-09-19T10:37:02;5.73;;;1.80;;
8538;SDS011;4307;53.868;11.680;2023-09-19T10:39:30;6.63;;;2.13;;
8538;SDS011;4307;53.868;11.680;2023-09-19T10:42:01;4.77;;;2.30;;
8538;SDS011;4307;53.868;11.680;2023-09-19T10:44:32;5.67;;;2.43;;
8538;SDS011;4307;53.868;11.680;2023-09-19T10:46:59;5.77;;;2.03;;
8538;SDS011;4307;53.868;11.680;2023-09-19T10:49:26;10.63;;;2.20;;
8538;SDS011;4307;53.868;11.680;2023-09-19T10:51:52;11.20;;;2.30;;
8538;SDS011;4307;53.868;11.680;2023-09-19T10:54:24;5.60;;;2.20;;
8538;SDS011;4307;53.868;11.680;2023-09-19T10:56:55;8.97;;;2.20;;
8538;SDS011;4307;53.868;11.680;2023-09-19T10:59:23;6.60;;;2.10;;
8538;SDS011;4307;53.868;11.680;2023-09-19T11:01:53;5.40;;;1.97;;
8538;SDS011;4307;53.868;11.680;2023-09-19T11:04:23;4.47;;;2.17;;
8538;SDS011;4307;53.868;11.680;2023-09-19T11:07:04;3.97;;;1.93;;
8538;SDS011;4307;53.868;11.680;2023-09-19T11:09:45;6.97;;;2.20;;
8538;SDS011;4307;53.868;11.680;2023-09-19T11:21:39;4.53;;;2.17;;
8538;SDS011;4307;53.868;11.680;2023-09-19T11:27:10;5.70;;;2.00;;
8538;SDS011;4307;53.868;11.680;2023-09-19T11:29:39;3.20;;;1.90;;
8538;SDS011;4307;53.868;11.680;2023-09-19T11:32:06;3.03;;;2.00;;
8538;SDS011;4307;53.868;11.680;2023-09-19T11:34:41;4.87;;;2.10;;
8538;SDS011;4307;53.868;11.680;2023-09-19T11:40:29;4.57;;;2.07;;
8538;SDS011;4307;53.868;11.680;2023-09-19T11:42:55;6.97;;;1.97;;
8538;SDS011;4307;53.868;11.680;2023-09-19T11:48:27;7.33;;;2.53;;
8538;SDS011;4307;53.868;11.680;2023-09-19T11:50:54;3.27;;;1.50;;
8538;SDS011;4307;53.868;11.680;2023-09-19T11:53:22;5.10;;;1.73;;
8538;SDS011;4307;53.868;11.680;2023-09-19T11:55:51;5.00;;;2.10;;
8538;SDS011;4307;53.868;11.680;2023-09-19T11:58:18;5.17;;;2.00;;
8538;SDS011;4307;53.868;11.680;2023-09-19T12:00:45;4.97;;;2.17;;
8538;SDS011;4307;53.868;11.680;2023-09-19T12:03:22;7.97;;;2.27;;
8538;SDS011;4307;53.868;11.680;2023-09-19T12:05:49;6.67;;;1.83;;
8538;SDS011;4307;53.868;11.680;2023-09-19T12:08:17;6.20;;;2.20;;
8538;SDS011;4307;53.868;11.680;2023-09-19T12:10:46;6.27;;;1.90;;
8538;SDS011;4307;53.868;11.680;2023-09-19T12:13:18;3.27;;;1.90;;
8538;SDS011;4307;53.868;11.680;2023-09-19T12:15:46;4.57;;;2.20;;
8538;SDS011;4307;53.868;11.680;2023-09-19T12:18:26;7.63;;;2.03;;
8538;SDS011;4307;53.868;11.680;2023-09-19T12:20:54;6.00;;;1.87;;
8538;SDS011;4307;53.868;11.680;2023-09-19T12:23:22;4.07;;;1.80;;
8538;SDS011;4307;53.868;11.680;2023-09-19T12:25:50;6.93;;;2.30;;
8538;SDS011;4307;53.868;11.680;2023-09-19T12:28:20;4.33;;;2.17;;
8538;SDS011;4307;53.868;11.680;2023-09-19T12:30:47;3.27;;;1.80;;
8538;SDS011;4307;53.868;11.680;2023-09-19T12:33:15;6.23;;;2.50;;
8538;SDS011;4307;53.868;11.680;2023-09-19T12:35:44;8.03;;;2.10;;
8538;SDS011;4307;53.868;11.680;2023-09-19T12:38:21;5.40;;;2.00;;
8538;SDS011;4307;53.868;11.680;2023-09-19T12:40:49;2.37;;;1.90;;
8538;SDS011;4307;53.868;11.680;2023-09-19T12:43:16;3.60;;;1.93;;
8538;SDS011;4307;53.868;11.680;2023-09-19T12:45:46;3.53;;;2.17;;
8538;SDS011;4307;53.868;11.680;2023-09-19T12:48:17;7.30;;;1.93;;
8538;SDS011;4307;53.868;11.680;2023-09-19T12:50:59;6.13;;;2.03;;
8538;SDS011;4307;53.868;11.680;2023-09-19T12:53:32;4.47;;;2.17;;
8538;SDS011;4307;53.868;11.680;2023-09-19T12:56:01;6.10;;;1.87;;
8538;SDS011;4307;53.868;11.680;2023-09-19T12:58:32;5.83;;;2.20;;
8538;SDS011;4307;53.868;11.680;2023-09-19T13:00:59;6.67;;;2.00;;
8538;SDS011;4307;53.868;11.680;2023-09-19T13:03:27;7.23;;;2.23;;
8538;SDS011;4307;53.868;11.680;2023-09-19T13:06:01;7.37;;;2.27;;
8538;SDS011;4307;53.868;11.680;2023-09-19T13:08:29;4.33;;;1.60;;
8538;SDS011;4307;53.868;11.680;2023-09-19T13:11:07;3.07;;;1.53;;
8538;SDS011;4307;53.868;11.680;2023-09-19T13:13:39;5.87;;;2.03;;
8538;SDS011;4307;53.868;11.680;2023-09-19T13:16:09;7.43;;;2.00;;
8538;SDS011;4307;53.868;11.680;2023-09-19T13:18:42;5.07;;;2.57;;
8538;SDS011;4307;53.868;11.680;2023-09-19T13:21:11;5.30;;;1.97;;
8538;SDS011;4307;53.868;11.680;2023-09-19T13:23:47;4.30;;;1.67;;
8538;SDS011;4307;53.868;11.680;2023-09-19T13:26:15;3.97;;;1.93;;
8538;SDS011;4307;53.868;11.680;2023-09-19T13:28:43;6.57;;;1.57;;
8538;SDS011;4307;53.868;11.680;2023-09-19T13:31:10;5.40;;;2.30;;
8538;SDS011;4307;53.868;11.680;2023-09-19T13:33:42;2.70;;;1.57;;
8538;SDS011;4307;53.868;11.680;2023-09-19T13:36:09;8.20;;;2.47;;
8538;SDS011;4307;53.868;11.680;2023-09-19T13:38:36;3.77;;;2.03;;
8538;SDS011;4307;53.868;11.680;2023-09-19T13:41:03;6.90;;;2.03;;
8538;SDS011;4307;53.868;11.680;2023-09-19T13:43:31;4.77;;;1.90;;
8538;SDS011;4307;53.868;11.680;2023-09-19T13:45:59;5.83;;;2.00;;
8538;SDS011;4307;53.868;11.680;2023-09-19T13:48:26;5.50;;;2.40;;
8538;SDS011;4307;53.868;11.680;2023-09-19T13:50:55;5.03;;;2.20;;
8538;SDS011;4307;53.868;11.680;2023-09-19T13:53:21;6.57;;;1.93;;
8538;SDS011;4307;53.868;11.680;2023-09-19T13:55:48;5.90;;;2.33;;
8538;SDS011;4307;53.868;11.680;2023-09-19T13:58:15;4.23;;;2.00;;
8538;SDS011;4307;53.868;11.680;2023-09-19T14:00:41;8.73;;;2.40;;
8538;SDS011;4307;53.868;11.680;2023-09-19T14:03:09;6.83;;;2.00;;
8538;SDS011;4307;53.868;11.680;2023-09-19T14:05:36;6.37;;;2.43;;
8538;SDS011;4307;53.868;11.680;2023-09-19T14:08:03;7.00;;;2.30;;
8538;SDS011;4307;53.868;11.680;2023-09-19T14:10:30;5.30;;;2.07;;
8538;SDS011;4307;53.868;11.680;2023-09-19T14:12:57;6.47;;;2.50;;
8538;SDS011;4307;53.868;11.680;2023-09-19T14:15:24;6.20;;;2.70;;
8538;SDS011;4307;53.868;11.680;2023-09-19T14:17:54;3.43;;;2.27;;
8538;SDS011;4307;53.868;11.680;2023-09-19T14:20:23;6.87;;;2.40;;
8538;SDS011;4307;53.868;11.680;2023-09-19T14:22:51;7.03;;;2.50;;
8538;SDS011;4307;53.868;11.680;2023-09-19T14:25:18;5.80;;;2.37;;
8538;SDS011;4307;53.868;11.680;2023-09-19T14:27:44;5.17;;;2.13;;
8538;SDS011;4307;53.868;11.680;2023-09-19T14:30:12;6.07;;;2.00;;
8538;SDS011;4307;53.868;11.680;2023-09-19T14:32:39;6.93;;;2.50;;
8538;SDS011;4307;53.868;11.680;2023-09-19T14:35:06;4.30;;;1.83;;
8538;SDS011;4307;53.868;11.680;2023-09-19T14:37:36;4.10;;;2.40;;
8538;SDS011;4307;53.868;11.680;2023-09-19T14:40:05;6.43;;;2.70;;
8538;SDS011;4307;53.868;11.680;2023-09-19T14:42:33;3.87;;;2.13;;
8538;SDS011;4307;53.868;11.680;2023-09-19T14:45:03;5.03;;;2.27;;
8538;SDS011;4307;53.868;11.680;2023-09-19T14:47:30;4.30;;;2.20;;
8538;SDS011;4307;53.868;11.680;2023-09-19T14:49:58;6.57;;;2.33;;
8538;SDS011;4307;53.868;11.680;2023-09-19T14:52:25;6.70;;;2.37;;
8538;SDS011;4307;53.868;11.680;2023-09-19T14:54:55;5.53;;;2.40;;
8538;SDS011;4307;53.868;11.680;2023-09-19T14:57:22;6.50;;;3.10;;
8538;SDS011;4307;53.868;11.680;2023-09-19T14:59:49;5.90;;;2.10;;
8538;SDS011;4307;53.868;11.680;2023-09-19T15:02:16;6.07;;;2.47;;
8538;SDS011;4307;53.868;11.680;2023-09-19T15:04:44;7.07;;;2.73;;
8538;SDS011;4307;53.868;11.680;2023-09-19T15:07:11;8.70;;;2.33;;
8538;SDS011;4307;53.868;11.680;2023-09-19T15:09:38;5.87;;;2.63;;
8538;SDS011;4307;53.868;11.680;2023-09-19T15:12:07;5.50;;;2.37;;
8538;SDS011;4307;53.868;11.680;2023-09-19T15:14:33;5.73;;;2.73;;
8538;SDS011;4307;53.868;11.680;2023-09-19T15:17:00;3.80;;;2.33;;
8538;SDS011;4307;53.868;11.680;2023-09-19T15:19:29;6.23;;;2.47;;
8538;SDS011;4307;53.868;11.680;2023-09-19T15:21:56;10.60;;;2.70;;
8538;SDS011;4307;53.868;11.680;2023-09-19T15:24:23;6.87;;;2.40;;
8538;SDS011;4307;53.868;11.680;2023-09-19T15:26:51;6.60;;;2.70;;
8538;SDS011;4307;53.868;11.680;2023-09-19T15:29:20;3.77;;;2.60;;
8538;SDS011;4307;53.868;11.680;2023-09-19T15:31:47;9.23;;;3.30;;
8538;SDS011;4307;53.868;11.680;2023-09-19T15:34:14;5.87;;;2.77;;